createdAt,value
2023-05-14T00:00:24.689Z,962.00
2023-05-14T00:01:24.517Z,922.00
2023-05-14T00:02:24.603Z,954.00
2023-05-14T00:03:24.702Z,970.00
2023-05-14T00:04:24.594Z,943.00
2023-05-14T00:05:24.579Z,961.00
2023-05-14T00:06:24.585Z,956.00
2023-05-14T00:07:24.594Z,943.00
2023-05-14T00:08:24.610Z,949.00
2023-05-14T00:09:24.610Z,969.00
2023-05-14T00:10:24.748Z,946.00
2023-05-14T00:11:24.630Z,962.00
2023-05-14T00:12:24.631Z,971.00
2023-05-14T00:13:24.590Z,977.00
2023-05-14T00:14:24.659Z,953.00
2023-05-14T00:15:24.659Z,945.00
2023-05-14T00:16:24.769Z,952.00
2023-05-14T00:17:24.722Z,994.00
2023-05-14T00:18:24.694Z,970.00
2023-05-14T00:19:24.686Z,951.00
2023-05-14T00:20:24.958Z,987.00
2023-05-14T00:21:24.757Z,939.00
2023-05-14T00:22:24.706Z,949.00
2023-05-14T00:23:24.709Z,959.00
2023-05-14T00:24:24.708Z,949.00
2023-05-14T00:25:24.674Z,956.00
2023-05-14T00:26:24.726Z,976.00
2023-05-14T00:27:24.737Z,976.00
2023-05-14T00:28:24.668Z,961.00
2023-05-14T00:29:24.703Z,970.00
2023-05-14T00:30:25.707Z,961.00
2023-05-14T00:31:24.783Z,971.00
2023-05-14T00:32:24.836Z,973.00
2023-05-14T00:33:24.729Z,934.00
2023-05-14T00:34:24.780Z,975.00
2023-05-14T00:35:24.781Z,953.00
2023-05-14T00:36:24.752Z,960.00
2023-05-14T00:37:24.738Z,958.00
2023-05-14T00:38:24.743Z,980.00
2023-05-14T00:39:24.889Z,952.00
2023-05-14T00:40:25.093Z,958.00
2023-05-14T00:41:24.853Z,979.00
2023-05-14T00:42:24.860Z,960.00
2023-05-14T00:43:24.842Z,977.00
2023-05-14T00:44:24.856Z,948.00
2023-05-14T00:45:24.864Z,955.00
2023-05-14T00:46:24.902Z,971.00
2023-05-14T00:47:24.923Z,961.00
2023-05-14T00:48:24.874Z,967.00
2023-05-14T00:49:24.896Z,973.00
2023-05-14T00:50:25.108Z,955.00
2023-05-14T00:51:24.911Z,964.00
2023-05-14T00:52:24.851Z,979.00
2023-05-14T00:53:24.833Z,928.00
2023-05-14T00:54:24.848Z,970.00
2023-05-14T00:55:24.926Z,974.00
2023-05-14T00:56:24.856Z,943.00
2023-05-14T00:57:24.878Z,985.00
2023-05-14T00:58:24.870Z,955.00
2023-05-14T00:59:24.956Z,961.00
2023-05-14T01:00:25.088Z,985.00
2023-05-14T01:01:24.936Z,963.00
2023-05-14T01:02:25.132Z,983.00
2023-05-14T01:03:25.029Z,1010.00
2023-05-14T01:04:24.911Z,989.00
2023-05-14T01:05:24.981Z,1006.00
2023-05-14T01:06:24.963Z,990.00
2023-05-14T01:07:24.953Z,960.00
2023-05-14T01:08:24.951Z,984.00
2023-05-14T01:09:24.962Z,977.00
2023-05-14T01:10:25.391Z,975.00
2023-05-14T01:11:25.038Z,967.00
2023-05-14T01:12:25.051Z,983.00
2023-05-14T01:13:25.036Z,997.00
2023-05-14T01:14:25.061Z,995.00
2023-05-14T01:15:25.071Z,978.00
2023-05-14T01:16:25.116Z,977.00
2023-05-14T01:17:25.112Z,974.00
2023-05-14T01:18:25.132Z,963.00
2023-05-14T01:19:25.081Z,965.00
2023-05-14T01:20:25.305Z,960.00
2023-05-14T01:21:25.094Z,966.00
2023-05-14T01:22:25.208Z,987.00
2023-05-14T01:23:25.380Z,976.00
2023-05-14T01:24:25.456Z,967.00
2023-05-14T01:25:25.539Z,985.00
2023-05-14T01:26:25.594Z,969.00
2023-05-14T01:27:25.569Z,989.00
2023-05-14T01:28:25.578Z,984.00
2023-05-14T01:29:25.565Z,974.00
2023-05-14T01:30:25.792Z,998.00
2023-05-14T01:31:25.706Z,963.00
2023-05-14T01:32:25.701Z,963.00
2023-05-14T01:33:25.691Z,962.00
2023-05-14T01:34:25.714Z,989.00
2023-05-14T01:35:25.720Z,989.00
2023-05-14T01:36:25.710Z,983.00
2023-05-14T01:37:25.814Z,1010.00
2023-05-14T01:38:25.884Z,991.00
2023-05-14T01:39:25.906Z,958.00
2023-05-14T01:40:26.108Z,995.00
2023-05-14T01:41:25.893Z,1005.00
2023-05-14T01:42:26.012Z,1001.00
2023-05-14T01:43:26.128Z,992.00
2023-05-14T01:44:26.165Z,971.00
2023-05-14T01:45:26.189Z,988.00
2023-05-14T01:46:26.265Z,1010.00
2023-05-14T01:47:26.221Z,1001.00
2023-05-14T01:48:26.191Z,981.00
2023-05-14T01:49:26.244Z,967.00
2023-05-14T01:50:26.407Z,1008.00
2023-05-14T01:51:26.332Z,975.00
2023-05-14T01:52:26.319Z,1008.00
2023-05-14T01:53:26.351Z,1005.00
2023-05-14T01:54:26.334Z,985.00
2023-05-14T01:55:26.336Z,997.00
2023-05-14T01:56:26.477Z,1005.00
2023-05-14T01:57:26.424Z,1006.00
2023-05-14T01:58:26.471Z,985.00
2023-05-14T01:59:26.473Z,990.00
2023-05-14T02:00:26.624Z,1001.00
2023-05-14T02:01:26.545Z,1008.00
2023-05-14T02:02:26.585Z,977.00
2023-05-14T02:03:26.597Z,977.00
2023-05-14T02:04:26.641Z,996.00
2023-05-14T02:05:26.578Z,1018.00
2023-05-14T02:06:26.586Z,1005.00
2023-05-14T02:07:26.593Z,959.00
2023-05-14T02:08:26.599Z,1010.00
2023-05-14T02:09:26.669Z,996.00
2023-05-14T02:10:26.649Z,982.00
2023-05-14T02:11:26.668Z,1015.00
2023-05-14T02:12:26.632Z,979.00
2023-05-14T02:13:26.789Z,980.00
2023-05-14T02:14:26.838Z,1010.00
2023-05-14T02:15:26.993Z,1008.00
2023-05-14T02:16:27.010Z,1018.00
2023-05-14T02:17:27.034Z,1012.00
2023-05-14T02:18:27.048Z,987.00
2023-05-14T02:19:27.018Z,990.00
2023-05-14T02:20:27.077Z,1007.00
2023-05-14T02:21:27.081Z,1006.00
2023-05-14T02:22:27.125Z,1015.00
2023-05-14T02:23:37.771Z,996.00
2023-05-14T02:24:28.109Z,998.00
2023-05-14T02:25:27.107Z,999.00
2023-05-14T02:26:27.070Z,992.00
2023-05-14T02:27:27.075Z,1005.00
2023-05-14T02:28:27.085Z,1008.00
2023-05-14T02:29:27.107Z,986.00
2023-05-14T02:30:27.062Z,1013.00
2023-05-14T02:31:27.067Z,1003.00
2023-05-14T02:32:27.216Z,1009.00
2023-05-14T02:33:27.069Z,995.00
2023-05-14T02:34:27.122Z,1007.00
2023-05-14T02:35:27.027Z,995.00
2023-05-14T02:36:27.040Z,1013.00
2023-05-14T02:37:27.016Z,1013.00
2023-05-14T02:38:26.996Z,986.00
2023-05-14T02:39:26.994Z,1007.00
2023-05-14T02:40:27.063Z,1009.00
2023-05-14T02:41:26.983Z,1011.00
2023-05-14T02:42:26.981Z,1009.00
2023-05-14T02:43:26.954Z,992.00
2023-05-14T02:44:26.995Z,1005.00
2023-05-14T02:45:26.996Z,1017.00
2023-05-14T02:46:27.020Z,1012.00
2023-05-14T02:47:26.965Z,1013.00
2023-05-14T02:48:26.941Z,999.00
2023-05-14T02:49:26.963Z,1010.00
2023-05-14T02:50:26.926Z,1023.00
2023-05-14T02:51:26.946Z,1014.00
2023-05-14T02:52:26.941Z,1020.00
2023-05-14T02:53:26.949Z,1014.00
2023-05-14T02:54:26.894Z,994.00
2023-05-14T02:55:26.914Z,1020.00
2023-05-14T02:56:26.890Z,996.00
2023-05-14T02:57:26.899Z,1023.00
2023-05-14T02:58:28.110Z,1022.00
2023-05-14T02:59:26.882Z,1019.00
2023-05-14T03:00:26.854Z,1023.00
2023-05-14T03:01:26.905Z,1016.00
2023-05-14T03:02:26.948Z,1023.00
2023-05-14T03:03:26.862Z,1017.00
2023-05-14T03:04:26.880Z,1020.00
2023-05-14T03:05:26.926Z,1028.00
2023-05-14T03:06:26.941Z,1020.00
2023-05-14T03:07:26.939Z,1016.00
2023-05-14T03:08:26.950Z,1011.00
2023-05-14T03:09:26.976Z,1024.00
2023-05-14T03:10:27.051Z,1023.00
2023-05-14T03:11:26.963Z,1007.00
2023-05-14T03:12:26.981Z,1017.00
2023-05-14T03:13:26.979Z,1030.00
2023-05-14T03:14:26.986Z,1017.00
2023-05-14T03:15:27.001Z,1017.00
2023-05-14T03:16:27.023Z,1028.00
2023-05-14T03:17:27.559Z,1005.00
2023-05-14T03:18:27.056Z,1013.00
2023-05-14T03:19:27.038Z,1027.00
2023-05-14T03:20:26.999Z,1031.00
2023-05-14T03:21:27.048Z,1005.00
2023-05-14T03:22:27.044Z,1017.00
2023-05-14T03:23:27.091Z,1021.00
2023-05-14T03:24:27.055Z,1016.00
2023-05-14T03:25:27.048Z,1026.00
2023-05-14T03:26:27.068Z,995.00
2023-05-14T03:27:27.089Z,1019.00
2023-05-14T03:28:27.079Z,1027.00
2023-05-14T03:29:27.103Z,1020.00
2023-05-14T03:30:27.224Z,1018.00
2023-05-14T03:31:27.252Z,1025.00
2023-05-14T03:32:27.136Z,1024.00
2023-05-14T03:33:27.112Z,1028.00
2023-05-14T03:34:27.116Z,1005.00
2023-05-14T03:35:27.149Z,1039.00
2023-05-14T03:36:27.135Z,1031.00
2023-05-14T03:37:27.277Z,1025.00
2023-05-14T03:38:27.155Z,1028.00
2023-05-14T03:39:27.159Z,1029.00
2023-05-14T03:40:27.174Z,1023.00
2023-05-14T03:41:27.193Z,1035.00
2023-05-14T03:42:27.193Z,1036.00
2023-05-14T03:43:27.192Z,1030.00
2023-05-14T03:44:27.190Z,1033.00
2023-05-14T03:45:27.175Z,1029.00
2023-05-14T03:46:27.230Z,1030.00
2023-05-14T03:47:27.302Z,1020.00
2023-05-14T03:48:27.392Z,1019.00
2023-05-14T03:49:27.239Z,1011.00
2023-05-14T03:50:27.375Z,1027.00
2023-05-14T03:51:27.276Z,1038.00
2023-05-14T03:52:27.384Z,1028.00
2023-05-14T03:53:27.259Z,1026.00
2023-05-14T03:54:27.387Z,1037.00
2023-05-14T03:55:27.272Z,1043.00
2023-05-14T03:56:27.320Z,1019.00
2023-05-14T03:57:27.319Z,1037.00
2023-05-14T03:58:27.344Z,1039.00
2023-05-14T03:59:27.328Z,1032.00
2023-05-14T04:00:27.389Z,1038.00
2023-05-14T04:01:27.355Z,1024.00
2023-05-14T04:02:27.516Z,1029.00
2023-05-14T04:03:27.488Z,1022.00
2023-05-14T04:04:27.377Z,1030.00
2023-05-14T04:05:27.385Z,1037.00
2023-05-14T04:06:27.393Z,1034.00
2023-05-14T04:07:27.388Z,1034.00
2023-05-14T04:08:27.413Z,1041.00
2023-05-14T04:09:27.402Z,1045.00
2023-05-14T04:10:27.419Z,1034.00
2023-05-14T04:11:27.438Z,1043.00
2023-05-14T04:12:27.411Z,1026.00
2023-05-14T04:13:27.454Z,1040.00
2023-05-14T04:14:27.434Z,1043.00
2023-05-14T04:15:27.434Z,1039.00
2023-05-14T04:16:27.569Z,1049.00
2023-05-14T04:17:27.615Z,1040.00
2023-05-14T04:18:27.529Z,1045.00
2023-05-14T04:19:27.496Z,1044.00
2023-05-14T04:20:27.530Z,1026.00
2023-05-14T04:21:27.555Z,1037.00
2023-05-14T04:22:27.511Z,1037.00
2023-05-14T04:23:27.531Z,1051.00
2023-05-14T04:24:27.550Z,1035.00
2023-05-14T04:25:27.517Z,1045.00
2023-05-14T04:26:27.561Z,1032.00
2023-05-14T04:27:28.015Z,1046.00
2023-05-14T04:28:27.562Z,1041.00
2023-05-14T04:29:27.580Z,1042.00
2023-05-14T04:30:27.574Z,1031.00
2023-05-14T04:31:27.581Z,1036.00
2023-05-14T04:32:27.596Z,1051.00
2023-05-14T04:33:27.576Z,1037.00
2023-05-14T04:34:27.589Z,1040.00
2023-05-14T04:35:27.617Z,1035.00
2023-05-14T04:36:27.600Z,1045.00
2023-05-14T04:37:27.637Z,1042.00
2023-05-14T04:38:27.665Z,1040.00
2023-05-14T04:39:27.680Z,1044.00
2023-05-14T04:40:27.654Z,1043.00
2023-05-14T04:41:27.689Z,1041.00
2023-05-14T04:42:27.678Z,1023.00
2023-05-14T04:43:27.652Z,1034.00
2023-05-14T04:44:27.737Z,1043.00
2023-05-14T04:45:27.713Z,1048.00
2023-05-14T04:46:27.782Z,1041.00
2023-05-14T04:47:27.777Z,1036.00
2023-05-14T04:48:27.726Z,1038.00
2023-05-14T04:49:27.713Z,1055.00
2023-05-14T04:50:27.766Z,1044.00
2023-05-14T04:51:27.746Z,1047.00
2023-05-14T04:52:27.753Z,1042.00
2023-05-14T04:53:27.709Z,1048.00
2023-05-14T04:54:27.802Z,1047.00
2023-05-14T04:55:27.769Z,1046.00
2023-05-14T04:56:27.779Z,1045.00
2023-05-14T04:57:27.802Z,1055.00
2023-05-14T04:58:27.769Z,1057.00
2023-05-14T04:59:27.784Z,1052.00
2023-05-14T05:00:27.843Z,1053.00
2023-05-14T05:01:27.801Z,1048.00
2023-05-14T05:02:27.891Z,1040.00
2023-05-14T05:03:27.893Z,1054.00
2023-05-14T05:04:27.821Z,1041.00
2023-05-14T05:05:27.846Z,1056.00
2023-05-14T05:06:27.878Z,1051.00
2023-05-14T05:07:27.894Z,1051.00
2023-05-14T05:08:27.868Z,1052.00
2023-05-14T05:09:27.900Z,1054.00
2023-05-14T05:10:27.872Z,1058.00
2023-05-14T05:11:27.928Z,1056.00
2023-05-14T05:12:27.920Z,1046.00
2023-05-14T05:13:27.922Z,1054.00
2023-05-14T05:14:27.932Z,1055.00
2023-05-14T05:15:27.959Z,1069.00
2023-05-14T05:16:28.029Z,1063.00
2023-05-14T05:17:27.993Z,1049.00
2023-05-14T05:18:28.050Z,1063.00
2023-05-14T05:19:39.663Z,1046.00
2023-05-14T05:20:29.058Z,1047.00
2023-05-14T05:21:27.995Z,1050.00
2023-05-14T05:22:27.958Z,1053.00
2023-05-14T05:23:28.007Z,1052.00
2023-05-14T05:24:27.975Z,1055.00
2023-05-14T05:25:27.969Z,1052.00
2023-05-14T05:26:27.959Z,1047.00
2023-05-14T05:27:27.954Z,1057.00
2023-05-14T05:28:27.932Z,1049.00
2023-05-14T05:29:27.943Z,1048.00
2023-05-14T05:30:27.913Z,1058.00
2023-05-14T05:31:27.980Z,1050.00
2023-05-14T05:32:27.947Z,1055.00
2023-05-14T05:33:27.897Z,1052.00
2023-05-14T05:34:27.981Z,1047.00
2023-05-14T05:35:27.912Z,1060.00
2023-05-14T05:36:27.884Z,1051.00
2023-05-14T05:37:27.889Z,1064.00
2023-05-14T05:38:27.864Z,1059.00
2023-05-14T05:39:27.901Z,1053.00
2023-05-14T05:40:27.838Z,1056.00
2023-05-14T05:41:27.859Z,1062.00
2023-05-14T05:42:27.822Z,1061.00
2023-05-14T05:43:27.820Z,1059.00
2023-05-14T05:44:27.851Z,1053.00
2023-05-14T05:45:27.902Z,1058.00
2023-05-14T05:46:27.936Z,1063.00
2023-05-14T05:47:27.900Z,1058.00
2023-05-14T05:48:27.817Z,1055.00
2023-05-14T05:49:27.808Z,1054.00
2023-05-14T05:50:27.793Z,1060.00
2023-05-14T05:51:27.786Z,1050.00
2023-05-14T05:52:27.785Z,1054.00
2023-05-14T05:53:27.811Z,1061.00
2023-05-14T05:54:27.824Z,1054.00
2023-05-14T05:55:27.805Z,1065.00
2023-05-14T05:56:27.814Z,1051.00
2023-05-14T05:57:27.854Z,1053.00
2023-05-14T05:58:27.832Z,1054.00
2023-05-14T05:59:27.836Z,1053.00
2023-05-14T06:00:28.028Z,1048.00
2023-05-14T06:01:27.931Z,1056.00
2023-05-14T06:02:28.007Z,1052.00
2023-05-14T06:03:27.915Z,1046.00
2023-05-14T06:04:27.892Z,1051.00
2023-05-14T06:05:27.978Z,1044.00
2023-05-14T06:06:27.913Z,1055.00
2023-05-14T06:07:27.912Z,1057.00
2023-05-14T06:08:27.914Z,1066.00
2023-05-14T06:09:27.958Z,1059.00
2023-05-14T06:10:27.905Z,1060.00
2023-05-14T06:11:27.944Z,1050.00
2023-05-14T06:12:27.982Z,1052.00
2023-05-14T06:13:27.940Z,1053.00
2023-05-14T06:14:27.953Z,1060.00
2023-05-14T06:15:27.976Z,1055.00
2023-05-14T06:16:28.012Z,1038.00
2023-05-14T06:17:28.000Z,1066.00
2023-05-14T06:18:28.016Z,1058.00
2023-05-14T06:19:27.992Z,1048.00
2023-05-14T06:20:28.021Z,1063.00
2023-05-14T06:21:28.083Z,1054.00
2023-05-14T06:22:28.099Z,1049.00
2023-05-14T06:23:28.062Z,1057.00
2023-05-14T06:24:28.100Z,1048.00
2023-05-14T06:25:28.116Z,1053.00
2023-05-14T06:26:28.122Z,1066.00
2023-05-14T06:27:28.130Z,1066.00
2023-05-14T06:28:28.128Z,1062.00
2023-05-14T06:29:28.171Z,1065.00
2023-05-14T06:30:28.209Z,1064.00
2023-05-14T06:31:28.200Z,1060.00
2023-05-14T06:32:28.213Z,1043.00
2023-05-14T06:33:28.157Z,1066.00
2023-05-14T06:34:28.174Z,1056.00
2023-05-14T06:35:28.229Z,1064.00
2023-05-14T06:36:28.211Z,1059.00
2023-05-14T06:37:28.213Z,1065.00
2023-05-14T06:38:28.286Z,1063.00
2023-05-14T06:39:28.271Z,1060.00
2023-05-14T06:40:28.346Z,1062.00
2023-05-14T06:41:28.305Z,1070.00
2023-05-14T06:42:28.325Z,1064.00
2023-05-14T06:43:28.343Z,1055.00
2023-05-14T06:44:28.310Z,1060.00
2023-05-14T06:45:28.298Z,1063.00
2023-05-14T06:46:28.336Z,1056.00
2023-05-14T06:47:28.369Z,1055.00
2023-05-14T06:48:28.457Z,1069.00
2023-05-14T06:49:28.345Z,1073.00
2023-05-14T06:50:28.374Z,1067.00
2023-05-14T06:51:28.393Z,1058.00
2023-05-14T06:52:28.403Z,1057.00
2023-05-14T06:53:28.425Z,1061.00
2023-05-14T06:54:28.468Z,1061.00
2023-05-14T06:55:28.477Z,1066.00
2023-05-14T06:56:28.481Z,1063.00
2023-05-14T06:57:28.453Z,1053.00
2023-05-14T06:58:28.512Z,1027.00
2023-05-14T06:59:28.538Z,1039.00
2023-05-14T07:00:28.496Z,1063.00
2023-05-14T07:01:28.597Z,1074.00
2023-05-14T07:02:28.558Z,1063.00
2023-05-14T07:03:28.560Z,1060.00
2023-05-14T07:04:28.619Z,1061.00
2023-05-14T07:05:28.572Z,1063.00
2023-05-14T07:06:28.582Z,1046.00
2023-05-14T07:07:28.561Z,1041.00
2023-05-14T07:08:28.545Z,1026.00
2023-05-14T07:09:28.796Z,1062.00
2023-05-14T07:10:28.632Z,1025.00
2023-05-14T07:11:28.636Z,1058.00
2023-05-14T07:12:28.592Z,1055.00
2023-05-14T07:13:28.855Z,1047.00
2023-05-14T07:14:28.593Z,1071.00
2023-05-14T07:15:28.660Z,1055.00
2023-05-14T07:16:28.696Z,1050.00
2023-05-14T07:17:28.759Z,1065.00
2023-05-14T07:18:28.699Z,1033.00
2023-05-14T07:19:28.709Z,1041.00
2023-05-14T07:20:28.759Z,1063.00
2023-05-14T07:21:28.793Z,1072.00
2023-05-14T07:22:28.917Z,1062.00
2023-05-14T07:23:28.911Z,1063.00
2023-05-14T07:24:28.917Z,1075.00
2023-05-14T07:25:28.944Z,1028.00
2023-05-14T07:26:28.954Z,1045.00
2023-05-14T07:27:28.892Z,1056.00
2023-05-14T07:28:29.009Z,1060.00
2023-05-14T07:29:29.010Z,1023.00
2023-05-14T07:30:29.004Z,1057.00
2023-05-14T07:31:28.973Z,1033.00
2023-05-14T07:32:29.097Z,1055.00
2023-05-14T07:33:28.998Z,1046.00
2023-05-14T07:34:28.996Z,1058.00
2023-05-14T07:35:29.015Z,1036.00
2023-05-14T07:36:29.012Z,1032.00
2023-05-14T07:37:29.022Z,1035.00
2023-05-14T07:38:29.044Z,1041.00
2023-05-14T07:39:29.184Z,1051.00
2023-05-14T07:40:29.140Z,1059.00
2023-05-14T07:41:29.183Z,1052.00
2023-05-14T07:42:35.840Z,1045.00
2023-05-14T07:43:30.245Z,1046.00
2023-05-14T07:44:29.104Z,1046.00
2023-05-14T07:45:29.123Z,1049.00
2023-05-14T07:46:29.124Z,1055.00
2023-05-14T07:47:29.220Z,1072.00
2023-05-14T07:48:29.187Z,1086.00
2023-05-14T07:49:29.099Z,1052.00
2023-05-14T07:50:29.110Z,1057.00
2023-05-14T07:51:29.158Z,1061.00
2023-05-14T07:52:29.105Z,1037.00
2023-05-14T07:53:29.062Z,1014.00
2023-05-14T07:54:29.080Z,1064.00
2023-05-14T07:55:29.139Z,1033.00
2023-05-14T07:56:29.143Z,1040.00
2023-05-14T07:57:29.151Z,1064.00
2023-05-14T07:58:29.212Z,1036.00
2023-05-14T07:59:29.264Z,1079.00
2023-05-14T08:00:29.341Z,1085.00
2023-05-14T08:01:29.380Z,1064.00
2023-05-14T08:02:29.523Z,1051.00
2023-05-14T08:03:29.652Z,1051.00
2023-05-14T08:04:29.692Z,1062.00
2023-05-14T08:05:29.607Z,1062.00
2023-05-14T08:06:29.679Z,1074.00
2023-05-14T08:07:29.788Z,1064.00
2023-05-14T08:08:29.851Z,1080.00
2023-05-14T08:09:29.850Z,1052.00
2023-05-14T08:10:30.000Z,1075.00
2023-05-14T08:11:29.965Z,1071.00
2023-05-14T08:12:30.057Z,1059.00
2023-05-14T08:13:30.139Z,1059.00
2023-05-14T08:14:30.186Z,1074.00
2023-05-14T08:15:30.195Z,1072.00
2023-05-14T08:16:30.271Z,1057.00
2023-05-14T08:17:30.347Z,1066.00
2023-05-14T08:18:30.409Z,1071.00
2023-05-14T08:19:30.435Z,1063.00
2023-05-14T08:20:30.434Z,1083.00
2023-05-14T08:21:30.486Z,1069.00
2023-05-14T08:22:30.553Z,1065.00
2023-05-14T08:23:30.567Z,1071.00
2023-05-14T08:24:30.622Z,1081.00
2023-05-14T08:25:30.691Z,1090.00
2023-05-14T08:26:30.684Z,1086.00
2023-05-14T08:27:30.741Z,1065.00
2023-05-14T08:28:30.749Z,1076.00
2023-05-14T08:29:30.806Z,1086.00
2023-05-14T08:30:30.850Z,1072.00
2023-05-14T08:31:30.879Z,1078.00
2023-05-14T08:32:30.891Z,1073.00
2023-05-14T08:33:30.876Z,1077.00
2023-05-14T08:34:30.888Z,1081.00
2023-05-14T08:35:31.073Z,1078.00
2023-05-14T08:36:30.906Z,1079.00
2023-05-14T08:37:30.961Z,1084.00
2023-05-14T08:38:30.963Z,1086.00
2023-05-14T08:39:30.977Z,1088.00
2023-05-14T08:40:30.935Z,1085.00
2023-05-14T08:41:30.939Z,1082.00
2023-05-14T08:42:30.939Z,1083.00
2023-05-14T08:43:31.006Z,1076.00
2023-05-14T08:44:31.025Z,1086.00
2023-05-14T08:45:31.029Z,1082.00
2023-05-14T08:46:31.080Z,1089.00
2023-05-14T08:47:31.174Z,1086.00
2023-05-14T08:48:31.289Z,1093.00
2023-05-14T08:49:31.187Z,1076.00
2023-05-14T08:50:31.351Z,1097.00
2023-05-14T08:51:31.376Z,1100.00
2023-05-14T08:52:31.414Z,1099.00
2023-05-14T08:53:31.488Z,1098.00
2023-05-14T08:54:31.538Z,1089.00
2023-05-14T08:55:31.609Z,1085.00
2023-05-14T08:56:31.643Z,1110.00
2023-05-14T08:57:31.701Z,1104.00
2023-05-14T08:58:31.733Z,1110.00
2023-05-14T08:59:31.784Z,1099.00
2023-05-14T09:00:31.854Z,1112.00
2023-05-14T09:01:31.905Z,1097.00
2023-05-14T09:02:31.992Z,1119.00
2023-05-14T09:03:32.012Z,1094.00
2023-05-14T09:04:32.068Z,1100.00
2023-05-14T09:05:32.118Z,1094.00
2023-05-14T09:06:32.182Z,1112.00
2023-05-14T09:07:32.250Z,1116.00
2023-05-14T09:08:32.302Z,1106.00
2023-05-14T09:09:32.356Z,1114.00
2023-05-14T09:10:32.417Z,1094.00
2023-05-14T09:11:32.471Z,1108.00
2023-05-14T09:12:32.520Z,1117.00
2023-05-14T09:13:32.582Z,1125.00
2023-05-14T09:14:32.638Z,1108.00
2023-05-14T09:15:32.704Z,1119.00
2023-05-14T09:16:32.832Z,1114.00
2023-05-14T09:17:32.850Z,1109.00
2023-05-14T09:18:32.834Z,1114.00
2023-05-14T09:19:32.939Z,1114.00
2023-05-14T09:20:32.996Z,1123.00
2023-05-14T09:21:33.663Z,1119.00
2023-05-14T09:22:33.125Z,1116.00
2023-05-14T09:23:33.161Z,1114.00
2023-05-14T09:24:33.237Z,1127.00
2023-05-14T09:25:33.271Z,1123.00
2023-05-14T09:26:33.342Z,1128.00
2023-05-14T09:27:33.411Z,1131.00
2023-05-14T09:28:33.415Z,1122.00
2023-05-14T09:29:33.513Z,1125.00
2023-05-14T09:30:33.582Z,1137.00
2023-05-14T09:31:33.742Z,1139.00
2023-05-14T09:32:33.699Z,1131.00
2023-05-14T09:33:33.743Z,1143.00
2023-05-14T09:34:33.934Z,1132.00
2023-05-14T09:35:33.857Z,1136.00
2023-05-14T09:36:33.953Z,1139.00
2023-05-14T09:37:33.973Z,1140.00
2023-05-14T09:38:34.012Z,1143.00
2023-05-14T09:39:34.086Z,1142.00
2023-05-14T09:40:34.105Z,1138.00
2023-05-14T09:41:34.203Z,1146.00
2023-05-14T09:42:34.218Z,1148.00
2023-05-14T09:43:34.285Z,1136.00
2023-05-14T09:44:34.329Z,1145.00
2023-05-14T09:45:34.396Z,1150.00
2023-05-14T09:46:34.458Z,1150.00
2023-05-14T09:47:34.570Z,1146.00
2023-05-14T09:48:34.616Z,1140.00
2023-05-14T09:49:34.635Z,1142.00
2023-05-14T09:50:34.646Z,1149.00
2023-05-14T09:51:34.743Z,1143.00
2023-05-14T09:52:34.803Z,1153.00
2023-05-14T09:53:34.862Z,1139.00
2023-05-14T09:54:34.909Z,1151.00
2023-05-14T09:55:34.973Z,1150.00
2023-05-14T09:56:35.034Z,1152.00
2023-05-14T09:57:35.099Z,1150.00
2023-05-14T09:58:35.133Z,1159.00
2023-05-14T09:59:35.154Z,1146.00
2023-05-14T10:00:35.279Z,1149.00
2023-05-14T10:01:35.364Z,1164.00
2023-05-14T10:02:35.388Z,1156.00
2023-05-14T10:03:35.400Z,1143.00
2023-05-14T10:04:35.511Z,1157.00
2023-05-14T10:05:35.565Z,1150.00
2023-05-14T10:06:35.594Z,1159.00
2023-05-14T10:07:35.613Z,1155.00
2023-05-14T10:08:35.732Z,1162.00
2023-05-14T10:09:35.731Z,1158.00
2023-05-14T10:10:35.806Z,1162.00
2023-05-14T10:11:35.837Z,1166.00
2023-05-14T10:12:35.912Z,1156.00
2023-05-14T10:13:35.967Z,1164.00
2023-05-14T10:14:36.036Z,1153.00
2023-05-14T10:15:36.096Z,1155.00
2023-05-14T10:16:36.186Z,1166.00
2023-05-14T10:17:36.243Z,1154.00
2023-05-14T10:18:36.276Z,1163.00
2023-05-14T10:19:36.317Z,1167.00
2023-05-14T10:20:36.420Z,1166.00
2023-05-14T10:21:36.445Z,1162.00
2023-05-14T10:22:36.505Z,1160.00
2023-05-14T10:23:36.536Z,1161.00
2023-05-14T10:24:36.611Z,1153.00
2023-05-14T10:26:07.025Z,500.00
2023-05-14T10:27:07.021Z,500.00
2023-05-14T10:28:06.982Z,500.00
2023-05-14T10:29:07.000Z,500.00
2023-05-14T10:30:06.992Z,500.00
2023-05-14T10:31:07.039Z,501.00
2023-05-14T10:32:07.036Z,502.00
2023-05-14T10:33:07.007Z,505.00
2023-05-14T10:34:06.977Z,504.00
2023-05-14T10:35:06.986Z,503.00
2023-05-14T10:36:06.929Z,508.00
2023-05-14T10:37:06.951Z,506.00
2023-05-14T10:38:07.027Z,511.00
2023-05-14T10:39:06.954Z,505.00
2023-05-14T10:40:06.920Z,509.00
2023-05-14T10:41:06.943Z,509.00
2023-05-14T10:42:06.981Z,510.00
2023-05-14T10:43:06.893Z,501.00
2023-05-14T10:44:06.899Z,508.00
2023-05-14T10:45:06.892Z,504.00
2023-05-14T10:46:06.967Z,504.00
2023-05-14T10:47:06.913Z,508.00
2023-05-14T10:48:06.934Z,506.00
2023-05-14T10:49:06.883Z,512.00
2023-05-14T10:50:06.850Z,509.00
2023-05-14T10:51:06.913Z,500.00
2023-05-14T10:52:06.911Z,506.00
2023-05-14T10:53:06.855Z,505.00
2023-05-14T10:54:06.857Z,509.00
2023-05-14T10:55:06.815Z,509.00
2023-05-14T10:56:06.828Z,508.00
2023-05-14T10:57:06.766Z,506.00
2023-05-14T10:58:06.847Z,501.00
2023-05-14T10:59:06.789Z,513.00
2023-05-14T11:00:06.799Z,508.00
2023-05-14T11:01:06.752Z,502.00
2023-05-14T11:02:06.840Z,509.00
2023-05-14T11:03:06.837Z,507.00
2023-05-14T11:04:06.798Z,506.00
2023-05-14T11:05:06.822Z,507.00
2023-05-14T11:06:06.913Z,510.00
2023-05-14T11:07:06.911Z,512.00
2023-05-14T11:08:06.941Z,511.00
2023-05-14T11:09:07.014Z,506.00
2023-05-14T11:10:07.063Z,506.00
2023-05-14T11:11:07.202Z,514.00
2023-05-14T11:12:07.176Z,508.00
2023-05-14T11:13:07.255Z,502.00
2023-05-14T11:14:09.604Z,516.00
2023-05-14T11:15:07.325Z,509.00
2023-05-14T11:17:07.291Z,511.00
2023-05-14T11:18:07.316Z,512.00
2023-05-14T11:19:07.264Z,513.00
2023-05-14T11:20:07.313Z,514.00
2023-05-14T11:21:07.267Z,510.00
2023-05-14T11:22:07.210Z,507.00
2023-05-14T11:23:07.266Z,508.00
2023-05-14T11:24:07.222Z,511.00
2023-05-14T11:25:07.211Z,517.00
2023-05-14T11:26:07.313Z,512.00
2023-05-14T11:27:07.202Z,511.00
2023-05-14T11:28:07.210Z,514.00
2023-05-14T11:29:07.204Z,510.00
2023-05-14T11:30:07.211Z,512.00
2023-05-14T11:31:07.132Z,513.00
2023-05-14T11:32:07.271Z,509.00
2023-05-14T11:33:07.254Z,506.00
2023-05-14T11:34:07.198Z,513.00
2023-05-14T11:35:07.178Z,510.00
2023-05-14T11:36:07.158Z,510.00
2023-05-14T11:37:07.114Z,513.00
2023-05-14T11:38:09.222Z,511.00
2023-05-14T11:39:07.124Z,515.00
2023-05-14T11:40:07.140Z,516.00
2023-05-14T11:41:07.144Z,511.00
2023-05-14T11:42:07.075Z,515.00
2023-05-14T11:43:07.152Z,511.00
2023-05-14T11:44:09.035Z,513.00
2023-05-14T11:45:07.269Z,514.00
2023-05-14T11:46:07.354Z,511.00
2023-05-14T11:47:07.396Z,515.00
2023-05-14T11:48:07.483Z,513.00
2023-05-14T11:49:07.505Z,507.00
2023-05-14T11:50:09.263Z,511.00
2023-05-14T11:51:07.616Z,516.00
2023-05-14T11:52:07.682Z,515.00
2023-05-14T11:53:07.765Z,510.00
2023-05-14T11:54:07.774Z,515.00
2023-05-14T11:55:07.852Z,517.00
2023-05-14T11:56:09.599Z,515.00
2023-05-14T11:57:07.967Z,515.00
2023-05-14T11:58:08.029Z,515.00
2023-05-14T11:59:08.089Z,512.00
2023-05-14T12:00:08.187Z,511.00
2023-05-14T12:01:08.253Z,513.00
2023-05-14T12:02:08.282Z,516.00
2023-05-14T12:03:08.403Z,513.00
2023-05-14T12:04:08.486Z,511.00
2023-05-14T12:05:08.425Z,509.00
2023-05-14T12:06:08.546Z,515.00
2023-05-14T12:07:08.545Z,510.00
2023-05-14T12:08:08.642Z,512.00
2023-05-14T12:09:08.712Z,512.00
2023-05-14T12:10:08.778Z,519.00
2023-05-14T12:11:08.882Z,522.00
2023-05-14T12:12:08.888Z,519.00
2023-05-14T12:13:08.928Z,518.00
2023-05-14T12:14:09.000Z,518.00
2023-05-14T12:15:09.044Z,514.00